sensor_id;sensor_type;location;lat;lon;timestamp;pressure;altitude;pressure_sealevel;temperature;humidity
9187;BME280;7273;48.902;9.410;2023-08-01T00:01:32;97070.44;;;18.44;71.15
9187;BME280;7273;48.902;9.410;2023-08-01T00:03:58;97078.72;;;18.47;70.91
9187;BME280;7273;48.902;9.410;2023-08-01T00:06:23;97076.34;;;18.46;70.84
9187;BME280;7273;48.902;9.410;2023-08-01T00:08:51;97075.91;;;18.44;70.94
9187;BME280;7273;48.902;9.410;2023-08-01T00:11:17;97068.03;;;18.42;71.22
9187;BME280;7273;48.902;9.410;2023-08-01T00:13:42;97066.09;;;18.43;71.17
9187;BME280;7273;48.902;9.410;2023-08-01T00:16:09;97057.00;;;18.39;71.08
9187;BME280;7273;48.902;9.410;2023-08-01T00:18:35;97047.53;;;18.36;71.28
9187;BME280;7273;48.902;9.410;2023-08-01T00:21:01;97049.81;;;18.34;71.36
9187;BME280;7273;48.902;9.410;2023-08-01T00:23:27;97054.47;;;18.34;71.18
9187;BME280;7273;48.902;9.410;2023-08-01T00:25:53;97046.53;;;18.29;71.44
9187;BME280;7273;48.902;9.410;2023-08-01T00:28:18;97041.19;;;18.20;71.48
9187;BME280;7273;48.902;9.410;2023-08-01T00:30:44;97041.56;;;18.19;71.23
9187;BME280;7273;48.902;9.410;2023-08-01T00:33:10;97042.97;;;18.13;71.45
9187;BME280;7273;48.902;9.410;2023-08-01T00:35:36;97038.34;;;18.01;71.72
9187;BME280;7273;48.902;9.410;2023-08-01T00:38:02;97027.28;;;17.98;71.76
9187;BME280;7273;48.902;9.410;2023-08-01T00:40:31;97016.59;;;17.93;71.97
9187;BME280;7273;48.902;9.410;2023-08-01T00:42:57;97008.66;;;17.88;72.02
9187;BME280;7273;48.902;9.410;2023-08-01T00:45:23;97017.91;;;17.83;72.37
9187;BME280;7273;48.902;9.410;2023-08-01T00:47:52;97010.66;;;17.75;72.55
9187;BME280;7273;48.902;9.410;2023-08-01T00:50:18;97005.41;;;17.70;72.68
9187;BME280;7273;48.902;9.410;2023-08-01T00:52:48;96988.56;;;17.68;72.80
9187;BME280;7273;48.902;9.410;2023-08-01T00:55:15;96979.91;;;17.66;77.87
9187;BME280;7273;48.902;9.410;2023-08-01T00:57:42;96971.06;;;17.57;73.87
9187;BME280;7273;48.902;9.410;2023-08-01T01:00:08;96965.16;;;17.55;73.54
9187;BME280;7273;48.902;9.410;2023-08-01T01:02:35;96952.97;;;17.53;73.57
9187;BME280;7273;48.902;9.410;2023-08-01T01:05:01;96939.66;;;17.51;73.66
9187;BME280;7273;48.902;9.410;2023-08-01T01:07:28;96935.41;;;17.54;73.48
9187;BME280;7273;48.902;9.410;2023-08-01T01:09:54;96937.94;;;17.47;74.18
9187;BME280;7273;48.902;9.410;2023-08-01T01:12:20;96937.19;;;17.46;73.91
9187;BME280;7273;48.902;9.410;2023-08-01T01:14:46;96918.72;;;17.43;74.34
9187;BME280;7273;48.902;9.410;2023-08-01T01:17:11;96910.81;;;17.41;73.92
9187;BME280;7273;48.902;9.410;2023-08-01T01:19:37;96911.19;;;17.40;74.20
9187;BME280;7273;48.902;9.410;2023-08-01T01:22:04;96904.25;;;17.42;73.67
9187;BME280;7273;48.902;9.410;2023-08-01T01:24:33;96897.16;;;17.41;73.67
9187;BME280;7273;48.902;9.410;2023-08-01T01:26:59;96905.03;;;17.43;73.69
9187;BME280;7273;48.902;9.410;2023-08-01T01:29:27;96897.28;;;17.45;73.66
9187;BME280;7273;48.902;9.410;2023-08-01T01:31:53;96894.56;;;17.45;73.84
9187;BME280;7273;48.902;9.410;2023-08-01T01:34:20;96908.56;;;17.43;74.11
9187;BME280;7273;48.902;9.410;2023-08-01T01:36:45;96907.44;;;17.44;74.13
9187;BME280;7273;48.902;9.410;2023-08-01T01:39:11;96918.72;;;17.43;74.30
9187;BME280;7273;48.902;9.410;2023-08-01T01:41:36;96921.91;;;17.45;74.07
9187;BME280;7273;48.902;9.410;2023-08-01T01:44:02;96912.91;;;17.44;74.13
9187;BME280;7273;48.902;9.410;2023-08-01T01:46:27;96907.78;;;17.43;74.06
9187;BME280;7273;48.902;9.410;2023-08-01T01:48:53;96909.59;;;17.39;74.37
9187;BME280;7273;48.902;9.410;2023-08-01T01:51:21;96913.84;;;17.36;74.07
9187;BME280;7273;48.902;9.410;2023-08-01T01:53:46;96916.22;;;17.38;78.80
9187;BME280;7273;48.902;9.410;2023-08-01T01:56:11;96902.25;;;17.27;75.24
9187;BME280;7273;48.902;9.410;2023-08-01T01:58:37;96897.47;;;17.24;75.04
9187;BME280;7273;48.902;9.410;2023-08-01T02:01:02;96891.91;;;17.21;74.62
9187;BME280;7273;48.902;9.410;2023-08-01T02:03:28;96885.53;;;17.17;74.57
9187;BME280;7273;48.902;9.410;2023-08-01T02:05:53;96877.69;;;17.15;74.99
9187;BME280;7273;48.902;9.410;2023-08-01T02:08:19;96873.72;;;17.13;75.25
9187;BME280;7273;48.902;9.410;2023-08-01T02:10:44;96865.88;;;17.11;75.20
9187;BME280;7273;48.902;9.410;2023-08-01T02:13:10;96866.34;;;17.13;75.13
9187;BME280;7273;48.902;9.410;2023-08-01T02:15:35;96865.53;;;17.13;75.19
9187;BME280;7273;48.902;9.410;2023-08-01T02:18:00;96867.91;;;17.14;75.43
9187;BME280;7273;48.902;9.410;2023-08-01T02:20:26;96874.88;;;17.12;75.67
9187;BME280;7273;48.902;9.410;2023-08-01T02:22:52;96882.03;;;17.16;75.87
9187;BME280;7273;48.902;9.410;2023-08-01T02:25:17;96876.13;;;17.14;76.20
9187;BME280;7273;48.902;9.410;2023-08-01T02:27:43;96867.22;;;17.17;76.39
9187;BME280;7273;48.902;9.410;2023-08-01T02:30:08;96870.41;;;17.19;76.65
9187;BME280;7273;48.902;9.410;2023-08-01T02:32:34;96863.78;;;17.20;76.73
9187;BME280;7273;48.902;9.410;2023-08-01T02:34:59;96852.06;;;17.20;76.86
9187;BME280;7273;48.902;9.410;2023-08-01T02:37:25;96857.63;;;17.23;76.89
9187;BME280;7273;48.902;9.410;2023-08-01T02:39:50;96854.34;;;17.18;77.17
9187;BME280;7273;48.902;9.410;2023-08-01T02:42:15;96859.69;;;17.26;76.84
9187;BME280;7273;48.902;9.410;2023-08-01T02:44:41;96858.88;;;17.26;76.69
9187;BME280;7273;48.902;9.410;2023-08-01T02:47:06;96859.22;;;17.24;76.88
9187;BME280;7273;48.902;9.410;2023-08-01T02:49:32;96858.53;;;17.27;76.64
9187;BME280;7273;48.902;9.410;2023-08-01T02:51:57;96854.56;;;17.25;76.70
9187;BME280;7273;48.902;9.410;2023-08-01T02:54:24;96851.91;;;17.28;76.26
9187;BME280;7273;48.902;9.410;2023-08-01T02:56:49;96846.78;;;17.27;76.43
9187;BME280;7273;48.902;9.410;2023-08-01T02:59:14;96838.59;;;17.27;76.64
9187;BME280;7273;48.902;9.410;2023-08-01T03:01:40;96834.63;;;17.24;76.80
9187;BME280;7273;48.902;9.410;2023-08-01T03:04:06;96833.47;;;17.25;76.83
9187;BME280;7273;48.902;9.410;2023-08-01T03:06:32;96829.63;;;17.26;76.66
9187;BME280;7273;48.902;9.410;2023-08-01T03:08:58;96826.97;;;17.30;76.59
9187;BME280;7273;48.902;9.410;2023-08-01T03:11:24;96821.06;;;17.28;76.69
9187;BME280;7273;48.902;9.410;2023-08-01T03:13:50;96814.78;;;17.27;76.69
9187;BME280;7273;48.902;9.410;2023-08-01T03:16:16;96820.72;;;17.29;76.86
9187;BME280;7273;48.902;9.410;2023-08-01T03:18:41;96814.00;;;17.27;76.82
9187;BME280;7273;48.902;9.410;2023-08-01T03:21:07;96813.63;;;17.28;76.87
9187;BME280;7273;48.902;9.410;2023-08-01T03:23:33;96806.16;;;17.25;76.61
9187;BME280;7273;48.902;9.410;2023-08-01T03:25:58;96808.53;;;17.27;76.67
9187;BME280;7273;48.902;9.410;2023-08-01T03:28:26;96801.03;;;17.24;76.90
9187;BME280;7273;48.902;9.410;2023-08-01T03:30:51;96800.34;;;17.27;76.82
9187;BME280;7273;48.902;9.410;2023-08-01T03:33:19;96799.56;;;17.26;76.70
9187;BME280;7273;48.902;9.410;2023-08-01T03:35:44;96806.94;;;17.26;76.78
9187;BME280;7273;48.902;9.410;2023-08-01T03:38:09;96808.53;;;17.27;76.72
9187;BME280;7273;48.902;9.410;2023-08-01T03:40:35;96803.06;;;17.27;76.72
9187;BME280;7273;48.902;9.410;2023-08-01T03:43:00;96800.34;;;17.27;77.07
9187;BME280;7273;48.902;9.410;2023-08-01T03:45:25;96798.16;;;17.32;76.63
9187;BME280;7273;48.902;9.410;2023-08-01T03:47:51;96793.13;;;17.34;76.49
9187;BME280;7273;48.902;9.410;2023-08-01T03:50:16;96784.13;;;17.34;76.45
9187;BME280;7273;48.902;9.410;2023-08-01T03:52:42;96791.28;;;17.38;76.31
9187;BME280;7273;48.902;9.410;2023-08-01T03:55:07;96792.16;;;17.42;76.64
9187;BME280;7273;48.902;9.410;2023-08-01T03:57:33;96789.06;;;17.44;76.57
9187;BME280;7273;48.902;9.410;2023-08-01T03:59:59;96785.41;;;17.52;76.51
9187;BME280;7273;48.902;9.410;2023-08-01T04:02:25;96790.88;;;17.52;76.23
9187;BME280;7273;48.902;9.410;2023-08-01T04:04:50;96789.09;;;17.60;75.36
9187;BME280;7273;48.902;9.410;2023-08-01T04:07:16;96770.84;;;17.64;75.32
9187;BME280;7273;48.902;9.410;2023-08-01T04:09:41;96751.47;;;17.69;75.25
9187;BME280;7273;48.902;9.410;2023-08-01T04:12:07;96747.19;;;17.71;75.79
9187;BME280;7273;48.902;9.410;2023-08-01T04:14:33;96746.06;;;17.72;75.85
9187;BME280;7273;48.902;9.410;2023-08-01T04:16:59;96741.13;;;17.78;75.90
9187;BME280;7273;48.902;9.410;2023-08-01T04:19:24;96721.06;;;17.89;75.22
9187;BME280;7273;48.902;9.410;2023-08-01T04:21:50;96710.66;;;17.95;74.88
9187;BME280;7273;48.902;9.410;2023-08-01T04:24:16;96677.09;;;17.98;75.32
9187;BME280;7273;48.902;9.410;2023-08-01T04:26:41;96657.69;;;18.03;75.08
9187;BME280;7273;48.902;9.410;2023-08-01T04:29:06;96646.81;;;18.06;75.41
9187;BME280;7273;48.902;9.410;2023-08-01T04:31:32;96658.13;;;18.05;74.83
9187;BME280;7273;48.902;9.410;2023-08-01T04:33:57;96671.00;;;18.04;75.15
9187;BME280;7273;48.902;9.410;2023-08-01T04:36:23;96690.22;;;18.08;75.03
9187;BME280;7273;48.902;9.410;2023-08-01T04:38:48;96694.53;;;18.09;74.99
9187;BME280;7273;48.902;9.410;2023-08-01T04:41:14;96694.03;;;18.03;77.37
9187;BME280;7273;48.902;9.410;2023-08-01T04:43:39;96690.81;;;18.17;75.82
9187;BME280;7273;48.902;9.410;2023-08-01T04:46:04;96688.06;;;18.17;75.79
9187;BME280;7273;48.902;9.410;2023-08-01T04:48:30;96685.41;;;18.20;75.17
9187;BME280;7273;48.902;9.410;2023-08-01T04:50:55;96676.44;;;18.20;75.02
9187;BME280;7273;48.902;9.410;2023-08-01T04:53:21;96675.34;;;18.24;75.29
9187;BME280;7273;48.902;9.410;2023-08-01T04:55:46;96689.81;;;18.25;75.59
9187;BME280;7273;48.902;9.410;2023-08-01T04:58:11;96694.94;;;18.26;75.42
9187;BME280;7273;48.902;9.410;2023-08-01T05:00:37;96707.47;;;18.27;75.76
9187;BME280;7273;48.902;9.410;2023-08-01T05:03:03;96719.50;;;18.23;75.82
9187;BME280;7273;48.902;9.410;2023-08-01T05:05:28;96724.44;;;18.17;76.33
9187;BME280;7273;48.902;9.410;2023-08-01T05:07:53;96725.25;;;18.18;76.33
9187;BME280;7273;48.902;9.410;2023-08-01T05:10:19;96711.56;;;18.18;76.54
9187;BME280;7273;48.902;9.410;2023-08-01T05:12:44;96731.78;;;18.13;77.07
9187;BME280;7273;48.902;9.410;2023-08-01T05:15:10;96725.97;;;18.15;76.84
9187;BME280;7273;48.902;9.410;2023-08-01T05:17:35;96743.09;;;18.12;76.92
9187;BME280;7273;48.902;9.410;2023-08-01T05:20:01;96741.84;;;18.09;77.13
9187;BME280;7273;48.902;9.410;2023-08-01T05:22:28;96752.00;;;18.09;77.10
9187;BME280;7273;48.902;9.410;2023-08-01T05:24:53;96745.41;;;18.10;77.25
9187;BME280;7273;48.902;9.410;2023-08-01T05:27:18;96722.63;;;18.06;77.54
9187;BME280;7273;48.902;9.410;2023-08-01T05:29:44;96712.84;;;18.05;77.33
9187;BME280;7273;48.902;9.410;2023-08-01T05:32:09;96714.78;;;18.04;77.55
9187;BME280;7273;48.902;9.410;2023-08-01T05:34:36;96711.31;;;18.07;77.57
9187;BME280;7273;48.902;9.410;2023-08-01T05:37:01;96712.84;;;18.05;77.88
9187;BME280;7273;48.902;9.410;2023-08-01T05:39:27;96710.81;;;18.02;78.05
9187;BME280;7273;48.902;9.410;2023-08-01T05:41:53;96708.34;;;17.97;78.38
9187;BME280;7273;48.902;9.410;2023-08-01T05:44:18;96706.84;;;17.99;78.23
9187;BME280;7273;48.902;9.410;2023-08-01T05:46:43;96719.75;;;17.99;77.99
9187;BME280;7273;48.902;9.410;2023-08-01T05:49:09;96723.34;;;18.03;77.88
9187;BME280;7273;48.902;9.410;2023-08-01T05:51:34;96723.78;;;18.05;77.60
9187;BME280;7273;48.902;9.410;2023-08-01T05:53:59;96727.72;;;18.07;77.64
9187;BME280;7273;48.902;9.410;2023-08-01T05:56:25;96734.00;;;18.08;77.61
9187;BME280;7273;48.902;9.410;2023-08-01T05:58:50;96733.22;;;18.07;77.68
9187;BME280;7273;48.902;9.410;2023-08-01T06:01:16;96725.06;;;18.11;77.69
9187;BME280;7273;48.902;9.410;2023-08-01T06:03:42;96719.16;;;18.09;77.76
9187;BME280;7273;48.902;9.410;2023-08-01T06:06:07;96732.00;;;18.05;78.15
9187;BME280;7273;48.902;9.410;2023-08-01T06:08:33;96731.63;;;18.06;78.12
9187;BME280;7273;48.902;9.410;2023-08-01T06:10:59;96725.34;;;18.06;77.96
9187;BME280;7273;48.902;9.410;2023-08-01T06:13:24;96721.91;;;18.09;78.00
9187;BME280;7273;48.902;9.410;2023-08-01T06:15:49;96718.47;;;18.12;77.89
9187;BME280;7273;48.902;9.410;2023-08-01T06:18:15;96724.34;;;18.14;77.76
9187;BME280;7273;48.902;9.410;2023-08-01T06:20:40;96718.13;;;18.13;77.70
9187;BME280;7273;48.902;9.410;2023-08-01T06:23:06;96724.81;;;18.16;77.65
9187;BME280;7273;48.902;9.410;2023-08-01T06:25:31;96727.97;;;18.18;77.67
9187;BME280;7273;48.902;9.410;2023-08-01T06:27:56;96722.94;;;18.20;77.55
9187;BME280;7273;48.902;9.410;2023-08-01T06:30:22;96724.88;;;18.19;77.58
9187;BME280;7273;48.902;9.410;2023-08-01T06:32:47;96738.13;;;18.17;77.78
9187;BME280;7273;48.902;9.410;2023-08-01T06:35:13;96741.66;;;18.18;78.16
9187;BME280;7273;48.902;9.410;2023-08-01T06:37:38;96747.94;;;18.18;77.54
9187;BME280;7273;48.902;9.410;2023-08-01T06:40:04;96765.94;;;18.19;77.39
9187;BME280;7273;48.902;9.410;2023-08-01T06:42:29;96769.47;;;18.20;77.34
9187;BME280;7273;48.902;9.410;2023-08-01T06:44:55;96778.50;;;18.05;77.89
9187;BME280;7273;48.902;9.410;2023-08-01T06:47:20;96781.38;;;17.77;78.70
9187;BME280;7273;48.902;9.410;2023-08-01T06:49:46;96790.72;;;17.61;78.13
9187;BME280;7273;48.902;9.410;2023-08-01T06:52:11;96785.22;;;17.45;77.71
9187;BME280;7273;48.902;9.410;2023-08-01T06:54:37;96785.28;;;17.33;78.08
9187;BME280;7273;48.902;9.410;2023-08-01T06:57:02;96789.22;;;17.20;78.80
9187;BME280;7273;48.902;9.410;2023-08-01T06:59:28;96795.31;;;17.13;79.17
9187;BME280;7273;48.902;9.410;2023-08-01T07:01:53;96787.59;;;17.03;79.11
9187;BME280;7273;48.902;9.410;2023-08-01T07:04:19;96762.38;;;16.94;79.27
9187;BME280;7273;48.902;9.410;2023-08-01T07:06:44;96777.06;;;16.90;79.64
9187;BME280;7273;48.902;9.410;2023-08-01T07:09:09;96766.06;;;16.86;79.61
9187;BME280;7273;48.902;9.410;2023-08-01T07:11:35;96766.66;;;16.80;79.90
9187;BME280;7273;48.902;9.410;2023-08-01T07:14:00;96767.00;;;16.78;79.93
9187;BME280;7273;48.902;9.410;2023-08-01T07:16:26;96759.97;;;16.77;79.42
9187;BME280;7273;48.902;9.410;2023-08-01T07:18:51;96754.50;;;16.77;79.55
9187;BME280;7273;48.902;9.410;2023-08-01T07:21:17;96744.28;;;16.74;79.67
9187;BME280;7273;48.902;9.410;2023-08-01T07:23:43;96735.28;;;16.74;79.70
9187;BME280;7273;48.902;9.410;2023-08-01T07:26:09;96727.91;;;16.74;79.46
9187;BME280;7273;48.902;9.410;2023-08-01T07:28:34;96720.47;;;16.75;79.58
9187;BME280;7273;48.902;9.410;2023-08-01T07:31:01;96755.97;;;16.75;80.15
9187;BME280;7273;48.902;9.410;2023-08-01T07:33:26;96770.31;;;16.72;80.54
9187;BME280;7273;48.902;9.410;2023-08-01T07:35:52;96773.50;;;16.74;80.68
9187;BME280;7273;48.902;9.410;2023-08-01T07:38:18;96779.09;;;16.65;80.57
9187;BME280;7273;48.902;9.410;2023-08-01T07:40:43;96766.97;;;16.63;80.18
9187;BME280;7273;48.902;9.410;2023-08-01T07:43:08;96769.59;;;16.59;83.10
9187;BME280;7273;48.902;9.410;2023-08-01T07:45:34;96780.63;;;16.51;82.70
9187;BME280;7273;48.902;9.410;2023-08-01T07:48:03;96773.59;;;16.50;81.38
9187;BME280;7273;48.902;9.410;2023-08-01T07:50:28;96762.44;;;16.43;82.52
9187;BME280;7273;48.902;9.410;2023-08-01T07:52:54;96778.72;;;16.39;83.11
9187;BME280;7273;48.902;9.410;2023-08-01T07:55:19;96776.56;;;16.33;82.33
9187;BME280;7273;48.902;9.410;2023-08-01T07:57:46;96768.38;;;16.33;80.48
9187;BME280;7273;48.902;9.410;2023-08-01T08:00:12;96767.47;;;16.29;80.18
9187;BME280;7273;48.902;9.410;2023-08-01T08:02:37;96776.09;;;16.31;80.00
9187;BME280;7273;48.902;9.410;2023-08-01T08:05:03;96774.88;;;16.28;81.30
9187;BME280;7273;48.902;9.410;2023-08-01T08:07:28;96764.66;;;16.25;80.76
9187;BME280;7273;48.902;9.410;2023-08-01T08:09:54;96772.03;;;16.25;81.13
9187;BME280;7273;48.902;9.410;2023-08-01T08:12:21;96778.28;;;16.25;81.74
9187;BME280;7273;48.902;9.410;2023-08-01T08:14:47;96770.47;;;16.24;85.53
9187;BME280;7273;48.902;9.410;2023-08-01T08:17:12;96755.56;;;16.21;87.84
9187;BME280;7273;48.902;9.410;2023-08-01T08:19:38;96751.34;;;16.24;83.25
9187;BME280;7273;48.902;9.410;2023-08-01T08:22:04;96750.66;;;16.27;90.53
9187;BME280;7273;48.902;9.410;2023-08-01T08:24:30;96756.56;;;16.29;85.55
9187;BME280;7273;48.902;9.410;2023-08-01T08:26:55;96758.69;;;16.35;86.10
9187;BME280;7273;48.902;9.410;2023-08-01T08:29:20;96770.06;;;16.37;84.69
9187;BME280;7273;48.902;9.410;2023-08-01T08:31:46;96771.22;;;16.36;86.32
9187;BME280;7273;48.902;9.410;2023-08-01T08:34:12;96773.69;;;16.41;85.35
9187;BME280;7273;48.902;9.410;2023-08-01T08:36:37;96765.16;;;16.43;85.57
9187;BME280;7273;48.902;9.410;2023-08-01T08:39:03;96768.69;;;16.43;86.91
9187;BME280;7273;48.902;9.410;2023-08-01T08:41:37;96766.09;;;16.47;86.46
9187;BME280;7273;48.902;9.410;2023-08-01T08:44:07;96751.78;;;16.50;87.22
9187;BME280;7273;48.902;9.410;2023-08-01T08:46:39;96750.63;;;16.51;87.14
9187;BME280;7273;48.902;9.410;2023-08-01T08:49:06;96761.63;;;16.54;86.58
9187;BME280;7273;48.902;9.410;2023-08-01T08:51:32;96750.59;;;16.63;85.52
9187;BME280;7273;48.902;9.410;2023-08-01T08:54:00;96748.38;;;16.68;85.30
9187;BME280;7273;48.902;9.410;2023-08-01T08:56:26;96741.00;;;16.69;84.44
9187;BME280;7273;48.902;9.410;2023-08-01T08:58:53;96739.94;;;16.73;87.39
9187;BME280;7273;48.902;9.410;2023-08-01T09:01:19;96748.00;;;16.82;85.72
9187;BME280;7273;48.902;9.410;2023-08-01T09:03:44;96749.66;;;16.86;85.23
9187;BME280;7273;48.902;9.410;2023-08-01T09:06:17;96751.78;;;16.93;86.00
9187;BME280;7273;48.902;9.410;2023-08-01T09:08:58;96756.56;;;16.96;86.07
9187;BME280;7273;48.902;9.410;2023-08-01T09:11:26;96744.16;;;16.98;86.49
9187;BME280;7273;48.902;9.410;2023-08-01T09:13:52;96741.06;;;17.00;84.11
9187;BME280;7273;48.902;9.410;2023-08-01T09:16:18;96741.16;;;17.03;88.32
9187;BME280;7273;48.902;9.410;2023-08-01T09:18:51;96742.28;;;17.02;84.87
9187;BME280;7273;48.902;9.410;2023-08-01T09:21:18;96740.81;;;17.05;85.99
9187;BME280;7273;48.902;9.410;2023-08-01T09:23:44;96758.53;;;17.11;82.95
9187;BME280;7273;48.902;9.410;2023-08-01T09:26:17;96769.09;;;17.12;84.42
9187;BME280;7273;48.902;9.410;2023-08-01T09:28:43;96766.72;;;17.11;85.05
9187;BME280;7273;48.902;9.410;2023-08-01T09:31:10;96766.63;;;17.07;84.45
9187;BME280;7273;48.902;9.410;2023-08-01T09:33:40;96761.88;;;17.04;87.33
9187;BME280;7273;48.902;9.410;2023-08-01T09:36:07;96755.88;;;16.99;85.44
9187;BME280;7273;48.902;9.410;2023-08-01T09:38:37;96768.75;;;16.98;84.99
9187;BME280;7273;48.902;9.410;2023-08-01T09:41:04;96755.28;;;17.05;84.64
9187;BME280;7273;48.902;9.410;2023-08-01T09:43:37;96750.22;;;17.07;84.71
9187;BME280;7273;48.902;9.410;2023-08-01T09:46:03;96767.53;;;17.11;84.07
9187;BME280;7273;48.902;9.410;2023-08-01T09:48:31;96774.31;;;17.17;87.39
9187;BME280;7273;48.902;9.410;2023-08-01T09:51:07;96769.50;;;17.26;84.56
9187;BME280;7273;48.902;9.410;2023-08-01T09:53:33;96777.00;;;17.29;84.25
9187;BME280;7273;48.902;9.410;2023-08-01T09:56:02;96781.75;;;17.32;85.44
9187;BME280;7273;48.902;9.410;2023-08-01T09:58:32;96784.59;;;17.36;84.38
9187;BME280;7273;48.902;9.410;2023-08-01T10:00:59;96789.34;;;17.39;85.04
9187;BME280;7273;48.902;9.410;2023-08-01T10:03:28;96783.88;;;17.39;83.82
9187;BME280;7273;48.902;9.410;2023-08-01T10:05:55;96783.97;;;17.42;83.17
9187;BME280;7273;48.902;9.410;2023-08-01T10:08:21;96785.91;;;17.42;83.83
9187;BME280;7273;48.902;9.410;2023-08-01T10:10:47;96782.13;;;17.47;84.31
9187;BME280;7273;48.902;9.410;2023-08-01T10:13:14;96785.41;;;17.52;82.81
9187;BME280;7273;48.902;9.410;2023-08-01T10:15:40;96785.16;;;17.57;83.67
9187;BME280;7273;48.902;9.410;2023-08-01T10:18:06;96790.00;;;17.64;85.18
9187;BME280;7273;48.902;9.410;2023-08-01T10:20:33;96790.34;;;17.62;87.55
9187;BME280;7273;48.902;9.410;2023-08-01T10:22:59;96793.19;;;17.66;88.46
9187;BME280;7273;48.902;9.410;2023-08-01T10:25:26;96798.75;;;17.69;84.54
9187;BME280;7273;48.902;9.410;2023-08-01T10:27:59;96801.63;;;17.76;82.99
9187;BME280;7273;48.902;9.410;2023-08-01T10:30:28;96792.03;;;17.82;83.19
9187;BME280;7273;48.902;9.410;2023-08-01T10:32:55;96807.81;;;17.89;82.93
9187;BME280;7273;48.902;9.410;2023-08-01T10:35:35;96801.19;;;17.90;84.11
9187;BME280;7273;48.902;9.410;2023-08-01T10:38:10;96810.34;;;17.97;84.20
9187;BME280;7273;48.902;9.410;2023-08-01T10:40:37;96805.25;;;17.96;85.48
9187;BME280;7273;48.902;9.410;2023-08-01T10:43:03;96794.03;;;18.01;85.16
9187;BME280;7273;48.902;9.410;2023-08-01T10:45:29;96793.84;;;18.09;84.18
9187;BME280;7273;48.902;9.410;2023-08-01T10:48:08;96800.97;;;18.14;86.38
9187;BME280;7273;48.902;9.410;2023-08-01T10:50:33;96802.63;;;18.34;86.19
9187;BME280;7273;48.902;9.410;2023-08-01T10:53:06;96809.47;;;18.59;83.92
9187;BME280;7273;48.902;9.410;2023-08-01T10:55:42;96808.63;;;18.74;82.72
9187;BME280;7273;48.902;9.410;2023-08-01T10:58:07;96803.38;;;18.85;82.19
9187;BME280;7273;48.902;9.410;2023-08-01T11:00:33;96808.13;;;19.07;81.23
9187;BME280;7273;48.902;9.410;2023-08-01T11:02:59;96808.09;;;19.26;81.18
9187;BME280;7273;48.902;9.410;2023-08-01T11:05:24;96800.31;;;19.47;80.81
9187;BME280;7273;48.902;9.410;2023-08-01T11:07:59;96803.78;;;19.66;78.91
9187;BME280;7273;48.902;9.410;2023-08-01T11:10:26;96816.88;;;19.99;79.24
9187;BME280;7273;48.902;9.410;2023-08-01T11:12:52;96813.66;;;20.42;78.28
9187;BME280;7273;48.902;9.410;2023-08-01T11:15:19;96813.44;;;20.84;75.97
9187;BME280;7273;48.902;9.410;2023-08-01T11:17:49;96816.06;;;21.36;75.23
9187;BME280;7273;48.902;9.410;2023-08-01T11:20:16;96815.91;;;21.95;74.01
9187;BME280;7273;48.902;9.410;2023-08-01T11:22:56;96811.84;;;22.26;69.23
9187;BME280;7273;48.902;9.410;2023-08-01T11:25:39;96813.72;;;21.75;71.04
9187;BME280;7273;48.902;9.410;2023-08-01T11:28:06;96812.69;;;21.50;74.78
9187;BME280;7273;48.902;9.410;2023-08-01T11:30:33;96834.41;;;21.25;75.51
9187;BME280;7273;48.902;9.410;2023-08-01T11:32:59;96832.25;;;21.08;75.25
9187;BME280;7273;48.902;9.410;2023-08-01T11:35:25;96833.75;;;20.76;75.03
9187;BME280;7273;48.902;9.410;2023-08-01T11:37:51;96827.03;;;20.99;73.35
9187;BME280;7273;48.902;9.410;2023-08-01T11:40:17;96832.19;;;21.74;73.81
9187;BME280;7273;48.902;9.410;2023-08-01T11:42:43;96838.69;;;21.92;74.30
9187;BME280;7273;48.902;9.410;2023-08-01T11:45:11;96834.81;;;22.51;73.35
9187;BME280;7273;48.902;9.410;2023-08-01T11:47:37;96836.38;;;23.13;73.86
9187;BME280;7273;48.902;9.410;2023-08-01T11:50:03;96836.16;;;23.60;73.82
9187;BME280;7273;48.902;9.410;2023-08-01T11:52:29;96849.63;;;23.79;73.16
9187;BME280;7273;48.902;9.410;2023-08-01T11:54:57;96852.00;;;23.81;73.05
9187;BME280;7273;48.902;9.410;2023-08-01T11:57:23;96857.94;;;23.90;73.88
9187;BME280;7273;48.902;9.410;2023-08-01T11:59:55;96851.31;;;24.16;71.33
9187;BME280;7273;48.902;9.410;2023-08-01T12:02:25;96858.41;;;24.41;72.46
9187;BME280;7273;48.902;9.410;2023-08-01T12:04:51;96858.41;;;24.52;72.75
9187;BME280;7273;48.902;9.410;2023-08-01T12:07:17;96854.84;;;24.72;71.95
9187;BME280;7273;48.902;9.410;2023-08-01T12:09:44;96862.34;;;24.68;71.93
9187;BME280;7273;48.902;9.410;2023-08-01T12:12:10;96858.78;;;24.43;67.48
9187;BME280;7273;48.902;9.410;2023-08-01T12:14:40;96848.91;;;24.77;71.16
9187;BME280;7273;48.902;9.410;2023-08-01T12:17:06;96870.97;;;25.02;71.74
9187;BME280;7273;48.902;9.410;2023-08-01T12:19:31;96853.63;;;24.63;69.84
9187;BME280;7273;48.902;9.410;2023-08-01T12:21:59;96864.66;;;24.98;70.15
9187;BME280;7273;48.902;9.410;2023-08-01T12:24:24;96857.88;;;25.13;69.81
9187;BME280;7273;48.902;9.410;2023-08-01T12:26:50;96866.28;;;24.78;62.34
9187;BME280;7273;48.902;9.410;2023-08-01T12:29:15;96861.81;;;25.19;69.58
9187;BME280;7273;48.902;9.410;2023-08-01T12:31:40;96869.38;;;25.11;69.34
9187;BME280;7273;48.902;9.410;2023-08-01T12:34:06;96884.47;;;24.68;66.53
9187;BME280;7273;48.902;9.410;2023-08-01T12:36:31;96873.00;;;24.80;67.20
9187;BME280;7273;48.902;9.410;2023-08-01T12:38:57;96867.47;;;24.73;66.86
9187;BME280;7273;48.902;9.410;2023-08-01T12:41:22;96877.34;;;24.60;66.79
9187;BME280;7273;48.902;9.410;2023-08-01T12:43:47;96870.63;;;24.26;65.98
9187;BME280;7273;48.902;9.410;2023-08-01T12:46:13;96869.44;;;24.13;65.20
9187;BME280;7273;48.902;9.410;2023-08-01T12:48:38;96864.59;;;23.75;65.52
9187;BME280;7273;48.902;9.410;2023-08-01T12:51:04;96871.66;;;23.51;64.28
9187;BME280;7273;48.902;9.410;2023-08-01T12:53:29;96870.75;;;23.26;64.54
9187;BME280;7273;48.902;9.410;2023-08-01T12:55:55;96867.88;;;23.05;62.98
9187;BME280;7273;48.902;9.410;2023-08-01T12:58:20;96869.59;;;23.34;63.72
9187;BME280;7273;48.902;9.410;2023-08-01T13:03:11;96883.41;;;23.34;63.80
9187;BME280;7273;48.902;9.410;2023-08-01T13:05:38;96862.50;;;23.30;62.87
9187;BME280;7273;48.902;9.410;2023-08-01T13:08:04;96861.34;;;23.38;63.21
9187;BME280;7273;48.902;9.410;2023-08-01T13:10:31;96866.84;;;23.38;61.59
9187;BME280;7273;48.902;9.410;2023-08-01T13:12:57;96876.22;;;23.16;59.79
9187;BME280;7273;48.902;9.410;2023-08-01T13:15:23;96868.31;;;23.18;60.16
9187;BME280;7273;48.902;9.410;2023-08-01T13:17:48;96873.97;;;23.42;61.12
9187;BME280;7273;48.902;9.410;2023-08-01T13:20:14;96877.91;;;23.41;60.30